Rosholt, Wisconsin
Current Conditions -  °F | °C
As of 10:55 AM on Saturday 20 Dec 2014 (Local Time) from KSTE Reporting Station
Haze Haze  
Wind Chill: 26°   Ceiling: 2000
Heat Index: 26°   Visibility: 5mi
Dew Point: 22°   Wind: 3mph
Humidity: 86%   Direction: 130°SE
Pressure: 30.22"   Gusts: NA
Location:  44.63°N, 89.31°W
Report Text: KSTE 201655Z AUTO 13003KT 5SM BR SCT011 OVC020 M03/M05 A3022 RMK AO2 T10321053
Loading
Personal Weather Stations






























Interactive Weather Map New forecast layout! Learn more

10-Day Weather Forecast

Advertisements
Track Severe Weather on mobile